createdAt,value
2022-11-22T00:01:15.421Z,96816.81
2022-11-22T00:03:17.441Z,96814.91
2022-11-22T00:05:19.284Z,96809.78
2022-11-22T00:07:20.941Z,96801.38
2022-11-22T00:09:22.621Z,96799.78
2022-11-22T00:11:24.159Z,96797.59
2022-11-22T00:13:25.664Z,96806.81
2022-11-22T00:15:27.145Z,96798.16
2022-11-22T00:17:28.827Z,96790.84
2022-11-22T00:19:30.931Z,96790.00
2022-11-22T00:21:32.928Z,96800.31
2022-11-22T00:23:35.069Z,96797.06
2022-11-22T00:25:36.656Z,96797.84
2022-11-22T00:27:38.692Z,96799.50
2022-11-22T00:29:40.583Z,96798.16
2022-11-22T00:31:44.976Z,96790.00
2022-11-22T00:33:46.503Z,96789.72
2022-11-22T00:35:48.053Z,96780.81
2022-11-22T00:37:49.671Z,96771.56
2022-11-22T00:39:51.297Z,96767.25
2022-11-22T00:41:53.007Z,96778.09
2022-11-22T00:43:54.615Z,96770.75
2022-11-22T00:45:56.456Z,96766.16
2022-11-22T00:47:57.978Z,96761.84
2022-11-22T00:49:59.536Z,96759.91
2022-11-22T00:52:03.530Z,96752.06
2022-11-22T00:54:05.354Z,96750.44
2022-11-22T00:56:06.899Z,96749.88
2022-11-22T00:58:08.567Z,96756.94
2022-11-22T01:00:10.953Z,96755.31
2022-11-22T01:02:12.535Z,96756.13
2022-11-22T01:04:14.312Z,96761.81
2022-11-22T01:06:16.016Z,96758.53
2022-11-22T01:08:17.654Z,96757.47
2022-11-22T01:10:22.578Z,96765.59
2022-11-22T01:12:24.272Z,96753.94
2022-11-22T01:14:25.956Z,96753.69
2022-11-22T01:16:27.512Z,96752.06
2022-11-22T01:18:32.229Z,96754.47
2022-11-22T01:20:36.838Z,96754.47
2022-11-22T01:22:38.553Z,96746.63
2022-11-22T01:24:40.109Z,96745.56
2022-11-22T01:26:41.809Z,96746.91
2022-11-22T01:28:43.376Z,96753.09
2022-11-22T01:30:45.250Z,96753.09
2022-11-22T01:32:46.909Z,96749.63
2022-11-22T01:34:48.461Z,96741.47
2022-11-22T01:36:50.060Z,96749.31
2022-11-22T01:38:52.053Z,96745.25
2022-11-22T01:40:54.060Z,96742.81
2022-11-22T01:42:58.162Z,96740.66
2022-11-22T01:45:36.530Z,96736.28
2022-11-22T01:47:38.834Z,96730.88
2022-11-22T01:50:03.154Z,96728.69
2022-11-22T01:52:27.378Z,96718.13
2022-11-22T01:54:33.793Z,96722.19
2022-11-22T01:56:38.437Z,96715.41
2022-11-22T01:58:43.491Z,96728.69
2022-11-22T02:00:45.385Z,96723.25
2022-11-22T02:02:55.674Z,96724.88
2022-11-22T02:04:59.764Z,96723.25
2022-11-22T02:07:14.135Z,96723.53
2022-11-22T02:09:19.804Z,96723.25
2022-11-22T02:11:23.854Z,96728.41
2022-11-22T02:13:26.990Z,96730.00
2022-11-22T02:15:28.600Z,96718.38
2022-11-22T02:17:33.177Z,96716.75
2022-11-22T02:19:44.323Z,96709.44
2022-11-22T02:21:51.179Z,96704.53
2022-11-22T02:24:07.325Z,96706.19
2022-11-22T02:26:09.015Z,96707.00
2022-11-22T02:28:13.394Z,96720.53
2022-11-22T02:30:15.763Z,96726.75
2022-11-22T02:32:17.407Z,96728.09
2022-11-22T02:34:19.025Z,96726.22
2022-11-22T02:36:20.515Z,96715.38
2022-11-22T02:38:26.223Z,96709.69
2022-11-22T02:40:31.523Z,96713.19
2022-11-22T02:42:34.063Z,96712.38
2022-11-22T02:44:35.615Z,96714.53
2022-11-22T02:46:46.902Z,96718.06
2022-11-22T02:48:48.712Z,96727.00
2022-11-22T02:50:50.280Z,96731.88
2022-11-22T02:52:51.826Z,96732.41
2022-11-22T02:54:53.283Z,96732.13
2022-11-22T02:56:54.856Z,96741.88
2022-11-22T02:58:56.520Z,96737.28
2022-11-22T03:00:58.196Z,96739.69
2022-11-22T03:03:03.210Z,96738.88
2022-11-22T03:05:04.955Z,96735.63
2022-11-22T03:07:07.072Z,96741.03
2022-11-22T03:09:08.708Z,96735.06
2022-11-22T03:11:11.484Z,96742.91
2022-11-22T03:13:13.238Z,96742.09
2022-11-22T03:15:16.273Z,96726.59
2022-11-22T03:17:20.966Z,96729.63
2022-11-22T03:19:22.856Z,96725.81
2022-11-22T03:21:27.404Z,96728.75
2022-11-22T03:23:30.097Z,96738.00
2022-11-22T03:25:40.201Z,96734.72
2022-11-22T03:27:41.817Z,96738.53
2022-11-22T03:29:43.388Z,96740.72
2022-11-22T03:31:44.922Z,96745.03
2022-11-22T03:33:47.185Z,96745.03
2022-11-22T03:35:48.656Z,96741.22
2022-11-22T03:37:50.234Z,96745.53
2022-11-22T03:39:54.208Z,96753.13
2022-11-22T03:41:56.491Z,96758.03
2022-11-22T03:43:58.184Z,96760.47
2022-11-22T03:45:59.775Z,96759.66
2022-11-22T03:48:01.398Z,96748.53
2022-11-22T03:50:03.170Z,96747.69
2022-11-22T03:52:04.961Z,96749.34
2022-11-22T03:54:06.773Z,96751.75
2022-11-22T03:56:08.418Z,96742.25
2022-11-22T03:58:10.076Z,96747.13
2022-11-22T04:00:13.558Z,96742.78
2022-11-22T04:02:17.136Z,96749.84
2022-11-22T04:04:18.836Z,96752.84
2022-11-22T04:06:20.532Z,96755.56
2022-11-22T04:08:22.254Z,96756.63
2022-11-22T04:10:25.115Z,96763.41
2022-11-22T04:12:26.661Z,96762.84
2022-11-22T04:14:46.769Z,96757.13
2022-11-22T04:16:48.369Z,96753.88
2022-11-22T04:18:49.918Z,96743.59
2022-11-22T04:21:10.096Z,96748.47
2022-11-22T04:23:17.150Z,96756.59
2022-11-22T04:25:18.750Z,96769.09
2022-11-22T04:27:20.562Z,96767.47
2022-11-22T04:29:23.297Z,96770.69
2022-11-22T04:31:43.385Z,96759.84
2022-11-22T04:33:44.890Z,96775.06
2022-11-22T04:35:47.752Z,96773.13
2022-11-22T04:37:52.422Z,96772.84
2022-11-22T04:39:54.046Z,96770.97
2022-11-22T04:42:31.551Z,96770.16
2022-11-22T04:44:42.504Z,96781.00
2022-11-22T04:46:47.283Z,96781.25
2022-11-22T04:48:48.879Z,96792.66
2022-11-22T04:51:09.132Z,96782.06
2022-11-22T04:53:11.059Z,96789.13
2022-11-22T04:55:12.989Z,96788.31
2022-11-22T04:57:14.557Z,96792.66
2022-11-22T04:59:19.611Z,96785.31
2022-11-22T05:01:21.463Z,96784.22
2022-11-22T05:03:23.300Z,96780.13
2022-11-22T05:05:25.514Z,96776.34
2022-11-22T05:07:27.174Z,96772.81
2022-11-22T05:09:29.088Z,96771.97
2022-11-22T05:11:31.069Z,96779.31
2022-11-22T05:13:38.385Z,96778.78
2022-11-22T05:15:40.174Z,96780.94
2022-11-22T05:17:41.778Z,96786.91
2022-11-22T05:19:48.927Z,96787.41
2022-11-22T05:21:50.880Z,96779.00
2022-11-22T05:23:55.941Z,96782.53
2022-11-22T05:25:57.731Z,96782.81
2022-11-22T05:27:59.425Z,96793.97
2022-11-22T05:30:01.043Z,96790.13
2022-11-22T05:32:04.090Z,96786.88
2022-11-22T05:34:08.045Z,96787.38
2022-11-22T05:36:10.425Z,96798.25
2022-11-22T05:38:12.040Z,96793.94
2022-11-22T05:40:14.548Z,96788.50
2022-11-22T05:42:16.054Z,96782.78
2022-11-22T05:44:17.705Z,96788.72
2022-11-22T05:46:25.419Z,96794.44
2022-11-22T05:48:27.122Z,96791.75
2022-11-22T05:50:28.905Z,96798.50
2022-11-22T05:52:30.683Z,96796.88
2022-11-22T05:54:32.242Z,96800.66
2022-11-22T05:56:33.813Z,96799.28
2022-11-22T05:58:35.921Z,96795.19
2022-11-22T06:00:39.045Z,96799.00
2022-11-22T06:02:41.078Z,96804.44
2022-11-22T06:04:42.777Z,96801.97
2022-11-22T06:06:47.082Z,96810.66
2022-11-22T06:08:51.245Z,96806.84
2022-11-22T06:10:52.972Z,96806.03
2022-11-22T06:12:55.508Z,96816.06
2022-11-22T06:14:57.139Z,96823.16
2022-11-22T06:16:59.835Z,96812.28
2022-11-22T06:19:01.502Z,96825.28
2022-11-22T06:21:13.526Z,96821.78
2022-11-22T06:23:15.041Z,96819.56
2022-11-22T06:25:16.698Z,96823.13
2022-11-22T06:27:19.601Z,96822.00
2022-11-22T06:29:21.246Z,96833.69
2022-11-22T06:31:25.475Z,96826.34
2022-11-22T06:33:27.043Z,96832.84
2022-11-22T06:35:28.701Z,96836.38
2022-11-22T06:37:30.474Z,96831.75
2022-11-22T06:39:32.600Z,96838.78
2022-11-22T06:41:37.131Z,96846.69
2022-11-22T06:43:46.795Z,96844.19
2022-11-22T06:45:50.179Z,96845.31
2022-11-22T06:47:51.752Z,96849.34
2022-11-22T06:49:53.402Z,96849.34
2022-11-22T06:51:55.082Z,96857.75
2022-11-22T06:53:58.113Z,96861.56
2022-11-22T06:56:05.692Z,96858.56
2022-11-22T06:58:07.352Z,96858.28
2022-11-22T07:00:09.535Z,96859.06
2022-11-22T07:02:12.435Z,96857.47
2022-11-22T07:04:14.433Z,96858.28
2022-11-22T07:06:18.056Z,96860.19
2022-11-22T07:08:20.917Z,96861.53
2022-11-22T07:10:24.947Z,96868.59
2022-11-22T07:12:29.219Z,96857.72
2022-11-22T07:14:31.589Z,96864.72
2022-11-22T07:16:33.501Z,96861.19
2022-11-22T07:18:35.389Z,96867.44
2022-11-22T07:20:37.146Z,96870.69
2022-11-22T07:22:38.742Z,96878.06
2022-11-22T07:24:40.551Z,96879.66
2022-11-22T07:26:44.701Z,96883.19
2022-11-22T07:28:46.884Z,96895.72
2022-11-22T07:30:48.503Z,96892.69
2022-11-22T07:32:50.116Z,96896.75
2022-11-22T07:34:51.767Z,96894.56
2022-11-22T07:36:59.055Z,96903.78
2022-11-22T07:39:03.358Z,96905.41
2022-11-22T07:41:06.266Z,96904.00
2022-11-22T07:43:08.006Z,96907.28
2022-11-22T07:45:10.112Z,96909.75
2022-11-22T07:47:11.865Z,96919.81
2022-11-22T07:49:13.480Z,96922.50
2022-11-22T07:51:15.917Z,96923.31
2022-11-22T07:53:18.680Z,96934.19
2022-11-22T07:55:20.313Z,96940.16
2022-11-22T07:57:22.067Z,96939.59
2022-11-22T07:59:23.606Z,96946.38
2022-11-22T08:01:27.738Z,96946.06
2022-11-22T08:03:29.552Z,96953.13
2022-11-22T08:05:34.168Z,96955.88
2022-11-22T08:07:35.973Z,96951.50
2022-11-22T08:09:37.712Z,96950.69
2022-11-22T08:11:39.727Z,96958.84
2022-11-22T08:13:41.516Z,96961.31
2022-11-22T08:15:43.501Z,96964.53
2022-11-22T08:17:45.333Z,96968.88
2022-11-22T08:19:47.063Z,96962.84
2022-11-22T08:21:55.372Z,96972.63
2022-11-22T08:24:00.143Z,96979.41
2022-11-22T08:26:01.998Z,96982.91
2022-11-22T08:28:04.132Z,96985.09
2022-11-22T08:30:06.475Z,96992.69
2022-11-22T08:32:08.385Z,96987.78
2022-11-22T08:34:09.928Z,96982.34
2022-11-22T08:36:12.048Z,96991.03
2022-11-22T08:38:13.649Z,97002.97
2022-11-22T08:40:15.439Z,96998.34
2022-11-22T08:42:16.934Z,96998.59
2022-11-22T08:44:18.587Z,96995.00
2022-11-22T08:46:20.450Z,96999.91
2022-11-22T08:48:22.667Z,96997.41
2022-11-22T08:50:24.458Z,96989.50
2022-11-22T08:52:26.305Z,96994.59
2022-11-22T08:54:27.930Z,96996.47
2022-11-22T08:56:29.744Z,96988.25
2022-11-22T08:58:33.116Z,96983.56
2022-11-22T09:00:34.758Z,96985.19
2022-11-22T09:02:36.479Z,96993.31
2022-11-22T09:04:38.119Z,96992.16
2022-11-22T09:11:23.471Z,96996.25
2022-11-22T09:13:25.344Z,96986.94
2022-11-22T09:15:27.413Z,96992.31
2022-11-22T09:17:29.257Z,96993.88
2022-11-22T09:19:30.984Z,96990.50
2022-11-22T09:21:32.823Z,96994.00
2022-11-22T09:23:36.347Z,97000.19
2022-11-22T09:25:38.429Z,96990.06
2022-11-22T09:27:40.134Z,96996.22
2022-11-22T09:29:41.709Z,96990.72
2022-11-22T09:31:43.578Z,96997.16
2022-11-22T09:33:46.247Z,97003.06
2022-11-22T09:35:48.954Z,97002.16
2022-11-22T09:37:50.868Z,96999.09
2022-11-22T09:39:52.440Z,97002.25
2022-11-22T09:42:00.320Z,96998.13
2022-11-22T09:44:23.916Z,97005.13
2022-11-22T09:46:54.467Z,97004.25
2022-11-22T09:49:22.361Z,97005.78
2022-11-22T09:51:33.404Z,97014.44
2022-11-22T09:53:47.750Z,97015.50
2022-11-22T09:55:53.277Z,97018.16
2022-11-22T09:58:23.235Z,97023.53
2022-11-22T10:00:27.424Z,97013.34
2022-11-22T10:02:59.305Z,97011.34
2022-11-22T10:05:13.306Z,97018.84
2022-11-22T10:07:20.834Z,97019.88
2022-11-22T10:09:28.690Z,97023.56
2022-11-22T10:11:45.844Z,97028.66
2022-11-22T10:13:59.566Z,97025.00
2022-11-22T10:16:17.025Z,97023.78
2022-11-22T10:18:34.550Z,97032.13
2022-11-22T10:20:47.271Z,97022.22
2022-11-22T10:22:51.091Z,97022.13
2022-11-22T10:24:52.917Z,97021.53
2022-11-22T10:26:57.539Z,97020.63
2022-11-22T10:29:23.156Z,97017.78
2022-11-22T10:31:31.794Z,97018.81
2022-11-22T10:33:44.352Z,97014.38
2022-11-22T10:36:08.687Z,97022.47
2022-11-22T10:38:50.250Z,97023.50
2022-11-22T10:41:11.879Z,97028.88
2022-11-22T10:43:37.688Z,97019.25
2022-11-22T10:45:51.088Z,97021.06
2022-11-22T10:48:04.721Z,97029.19
2022-11-22T10:50:16.672Z,97032.41
2022-11-22T10:52:56.608Z,97032.13
2022-11-22T10:55:16.662Z,97036.38
2022-11-22T10:57:38.841Z,97043.19
2022-11-22T11:00:12.682Z,97041.47
2022-11-22T11:02:19.910Z,97041.97
2022-11-22T11:04:24.839Z,97041.16
2022-11-22T11:07:04.608Z,97041.97
2022-11-22T11:09:54.869Z,97040.84
2022-11-22T11:11:27.111Z,97039.75
2022-11-22T11:13:34.464Z,97037.81
2022-11-22T11:15:47.253Z,97049.28
2022-11-22T11:18:01.817Z,97038.31
2022-11-22T11:20:22.751Z,97047.03
2022-11-22T11:22:51.821Z,97051.41
2022-11-22T11:24:49.006Z,97045.63
2022-11-22T11:26:56.239Z,97044.00
2022-11-22T11:29:19.347Z,97037.41
2022-11-22T11:31:21.866Z,97052.41
2022-11-22T11:33:37.622Z,97036.81
2022-11-22T11:35:41.024Z,97036.47
2022-11-22T11:37:42.547Z,97037.00
2022-11-22T11:39:47.384Z,97039.75
2022-11-22T11:41:49.281Z,97029.91
2022-11-22T11:43:53.254Z,97025.25
2022-11-22T11:45:55.185Z,97035.06
2022-11-22T11:47:56.946Z,97020.78
2022-11-22T11:49:58.724Z,97025.16
2022-11-22T11:52:29.752Z,97021.28
2022-11-22T11:54:45.631Z,97036.38
2022-11-22T11:56:57.996Z,97017.22
2022-11-22T11:59:06.766Z,97025.16
2022-11-22T12:01:12.269Z,97016.94
2022-11-22T12:03:17.359Z,97009.53
2022-11-22T12:05:19.125Z,97020.50
2022-11-22T12:07:27.449Z,97026.75
2022-11-22T12:09:42.679Z,97031.63
2022-11-22T12:11:51.789Z,97025.31
2022-11-22T12:14:18.897Z,97021.16
2022-11-22T12:16:20.894Z,97013.47
2022-11-22T12:18:30.981Z,97005.16
2022-11-22T12:21:14.459Z,96997.94
2022-11-22T12:23:26.864Z,96999.97
2022-11-22T12:25:40.539Z,97001.16
2022-11-22T12:27:42.290Z,96998.28
2022-11-22T12:29:44.643Z,96996.25
2022-11-22T12:32:01.469Z,97002.13
2022-11-22T12:34:10.768Z,97001.66
2022-11-22T12:36:20.857Z,96996.88
2022-11-22T12:38:34.543Z,96992.91
2022-11-22T12:40:42.126Z,96992.78
2022-11-22T12:42:54.692Z,96989.94
2022-11-22T12:45:06.548Z,96978.31
2022-11-22T12:47:16.137Z,96979.63
2022-11-22T12:49:28.012Z,96982.69
2022-11-22T12:52:16.572Z,96983.50
2022-11-22T12:54:30.603Z,96978.31
2022-11-22T12:56:51.584Z,96968.50
2022-11-22T12:59:09.082Z,96978.16
2022-11-22T13:01:29.551Z,96969.13
2022-11-22T13:03:37.462Z,96969.13
2022-11-22T13:05:52.065Z,96965.25
2022-11-22T13:08:14.512Z,96965.25
2022-11-22T13:10:28.120Z,96965.56
2022-11-22T13:12:36.471Z,96965.88
2022-11-22T13:14:55.195Z,96963.44
2022-11-22T13:16:57.329Z,96965.06
2022-11-22T13:19:03.246Z,96966.00
2022-11-22T13:21:26.938Z,96964.69
2022-11-22T13:23:53.756Z,96969.56
2022-11-22T13:25:58.141Z,96966.75
2022-11-22T13:28:05.652Z,96963.03
2022-11-22T13:30:21.569Z,96966.38
2022-11-22T13:32:25.607Z,96963.66
2022-11-22T13:34:28.374Z,96971.66
2022-11-22T13:36:30.329Z,96965.38
2022-11-22T13:38:32.527Z,96965.38
2022-11-22T13:40:45.266Z,96966.50
2022-11-22T13:42:49.274Z,96963.78
2022-11-22T13:44:53.926Z,96973.72
2022-11-22T13:46:58.436Z,96972.59
2022-11-22T13:49:15.096Z,96976.44
2022-11-22T13:51:37.506Z,96980.63
2022-11-22T13:53:42.659Z,96982.84
2022-11-22T13:55:44.569Z,96973.66
2022-11-22T13:57:46.173Z,96976.69
2022-11-22T13:59:47.950Z,96978.44
2022-11-22T14:01:54.679Z,96983.91
2022-11-22T14:04:16.775Z,96979.03
2022-11-22T14:06:30.486Z,96969.22
2022-11-22T14:08:38.619Z,96978.56
2022-11-22T14:10:52.620Z,96980.19
2022-11-22T14:13:35.285Z,96982.72
2022-11-22T14:15:50.279Z,96979.78
2022-11-22T14:18:05.915Z,96978.47
2022-11-22T14:20:27.737Z,96982.63
2022-11-22T14:22:47.200Z,96983.56
2022-11-22T14:25:02.620Z,96986.63
2022-11-22T14:27:31.104Z,96998.16
2022-11-22T14:29:53.945Z,96992.50
2022-11-22T14:32:02.111Z,96994.22
2022-11-22T14:34:22.143Z,97007.41
2022-11-22T14:36:23.953Z,96999.81
2022-11-22T14:38:29.252Z,97005.59
2022-11-22T14:40:37.250Z,97006.72
2022-11-22T14:42:47.348Z,97007.81
2022-11-22T14:44:51.796Z,96996.97
2022-11-22T14:47:02.925Z,97002.56
2022-11-22T14:49:45.566Z,97002.66
2022-11-22T14:51:52.844Z,97004.03
2022-11-22T14:54:16.544Z,97009.34
2022-11-22T14:56:21.698Z,97006.38
2022-11-22T14:58:28.325Z,97011.34
2022-11-22T15:01:11.382Z,97005.66
2022-11-22T15:03:21.952Z,97007.41
2022-11-22T15:09:11.236Z,96997.88
2022-11-22T15:09:16.586Z,96998.47
2022-11-22T15:11:20.688Z,97004.84
2022-11-22T15:13:49.085Z,97003.53
2022-11-22T15:58:48.985Z,97069.56
2022-11-22T16:00:51.131Z,97069.88
2022-11-22T16:03:08.478Z,97070.44
2022-11-22T16:06:09.438Z,97069.94
2022-11-22T16:07:37.689Z,97073.25
2022-11-22T16:09:40.424Z,97078.72
2022-11-22T16:11:42.076Z,97081.53
2022-11-22T16:13:43.859Z,97077.97
2022-11-22T16:16:03.553Z,97076.66
2022-11-22T16:18:27.830Z,97078.06
2022-11-22T16:20:34.287Z,97079.44
2022-11-22T16:22:35.901Z,97073.75
2022-11-22T16:24:37.602Z,97078.94
2022-11-22T16:26:39.860Z,97076.47
2022-11-22T16:28:41.774Z,97082.25
2022-11-22T16:30:43.997Z,97083.06
2022-11-22T16:32:48.128Z,97084.47
2022-11-22T16:35:03.130Z,97085.88
2022-11-22T16:37:37.499Z,97085.63
2022-11-22T16:39:40.603Z,97082.38
2022-11-22T16:41:42.484Z,97076.66
2022-11-22T16:43:44.274Z,97075.06
2022-11-22T16:45:46.022Z,97080.53
2022-11-22T16:47:58.585Z,97080.00
2022-11-22T16:50:14.693Z,97092.03
2022-11-22T16:52:17.255Z,97095.03
2022-11-22T16:54:20.731Z,97096.97
2022-11-22T16:56:25.108Z,97091.50
2022-11-22T16:58:28.623Z,97093.69
2022-11-22T17:00:30.995Z,97092.09
2022-11-22T17:02:33.103Z,97112.28
2022-11-22T17:04:40.676Z,97106.81
2022-11-22T17:06:45.950Z,97103.06
2022-11-22T17:08:49.715Z,97104.16
2022-11-22T17:10:52.641Z,97103.66
2022-11-22T17:12:54.307Z,97099.59
2022-11-22T17:14:56.532Z,97103.41
2022-11-22T17:16:58.282Z,97100.97
2022-11-22T17:18:59.874Z,97103.19
2022-11-22T17:21:01.602Z,97093.94
2022-11-22T17:23:06.114Z,97102.13
2022-11-22T17:25:12.229Z,97106.81
2022-11-22T17:27:14.178Z,97114.44
2022-11-22T17:29:48.861Z,97116.06
2022-11-22T17:31:40.059Z,97111.72
2022-11-22T17:33:42.841Z,97110.38
2022-11-22T17:35:44.920Z,97115.31
2022-11-22T17:37:46.667Z,97119.69
2022-11-22T17:39:51.663Z,97124.31
2022-11-22T17:41:56.401Z,97123.81
2022-11-22T17:43:58.343Z,97129.00
2022-11-22T17:46:00.358Z,97132.88
2022-11-22T17:48:02.693Z,97127.41
2022-11-22T17:50:05.253Z,97126.88
2022-11-22T17:52:06.995Z,97123.63
2022-11-22T17:54:08.801Z,97125.25
2022-11-22T17:56:11.612Z,97131.28
2022-11-22T17:58:13.707Z,97134.31
2022-11-22T18:00:15.899Z,97140.03
2022-11-22T18:02:18.859Z,97138.44
2022-11-22T18:04:20.612Z,97141.94
2022-11-22T18:06:22.554Z,97139.53
2022-11-22T18:08:24.489Z,97146.63
2022-11-22T18:10:26.138Z,97150.13
2022-11-22T18:12:27.996Z,97154.25
2022-11-22T18:14:30.646Z,97148.78
2022-11-22T18:16:32.385Z,97148.00
2022-11-22T18:20:58.136Z,97157.31
2022-11-22T18:22:59.743Z,97155.41
2022-11-22T18:25:04.526Z,97159.22
2022-11-22T18:27:06.141Z,97155.69
2022-11-22T18:31:50.846Z,97151.63
2022-11-22T18:33:54.312Z,97152.75
2022-11-22T18:36:05.323Z,97158.19
2022-11-22T18:38:06.966Z,97165.25
2022-11-22T18:40:09.416Z,97165.84
2022-11-22T18:42:15.688Z,97172.91
2022-11-22T18:44:21.045Z,97182.72
2022-11-22T18:46:22.720Z,97177.28
2022-11-22T18:48:24.332Z,97180.22
2022-11-22T18:50:28.403Z,97180.81
2022-11-22T18:52:37.423Z,97175.38
2022-11-22T18:54:39.045Z,97178.09
2022-11-22T18:56:41.132Z,97167.97
2022-11-22T18:58:51.674Z,97180.00
2022-11-22T19:00:53.777Z,97172.66
2022-11-22T19:03:02.958Z,97174.56
2022-11-22T19:05:05.233Z,97175.13
2022-11-22T19:07:10.000Z,97182.47
2022-11-22T19:09:12.268Z,97176.75
2022-11-22T19:11:15.553Z,97177.84
2022-11-22T19:13:17.176Z,97177.84
2022-11-22T19:15:19.184Z,97182.22
2022-11-22T19:17:22.364Z,97182.72
2022-11-22T19:19:24.718Z,97175.94
2022-11-22T19:21:28.058Z,97175.94
2022-11-22T19:23:30.443Z,97181.09
2022-11-22T19:25:35.510Z,97180.06
2022-11-22T19:27:37.191Z,97170.75
2022-11-22T19:29:39.054Z,97189.84
2022-11-22T19:31:43.436Z,97187.13
2022-11-22T19:33:50.565Z,97181.66
2022-11-22T19:35:59.364Z,97178.16
2022-11-22T19:38:01.401Z,97172.69
2022-11-22T19:40:03.122Z,97175.69
2022-11-22T19:42:04.928Z,97179.53
2022-11-22T19:44:06.679Z,97172.97
2022-11-22T19:46:08.408Z,97174.88
2022-11-22T19:48:10.498Z,97169.41
2022-11-22T19:50:12.242Z,97174.09
2022-11-22T19:52:14.010Z,97178.97
2022-11-22T19:54:15.752Z,97175.47
2022-11-22T19:56:18.702Z,97177.38
2022-11-22T19:58:20.462Z,97183.66
2022-11-22T20:00:22.633Z,97182.53
2022-11-22T20:02:24.196Z,97180.38
2022-11-22T20:04:25.786Z,97189.38
2022-11-22T20:06:28.315Z,97190.19
2022-11-22T20:08:30.851Z,97193.72
2022-11-22T20:10:33.686Z,97196.47
2022-11-22T20:12:35.328Z,97203.00
2022-11-22T20:14:41.264Z,97197.03
2022-11-22T20:16:45.619Z,97192.09
2022-11-22T20:18:48.295Z,97198.88
2022-11-22T20:20:49.972Z,97196.16
2022-11-22T20:22:54.836Z,97205.16
2022-11-22T20:24:59.906Z,97206.78
2022-11-22T20:27:09.157Z,97203.50
2022-11-22T20:29:13.100Z,97199.19
2022-11-22T20:31:19.301Z,97208.19
2022-11-22T20:33:23.780Z,97215.81
2022-11-22T20:35:25.587Z,97213.38
2022-11-22T20:37:27.277Z,97217.19
2022-11-22T20:39:28.991Z,97218.53
2022-11-22T20:41:30.999Z,97226.19
2022-11-22T20:43:33.802Z,97226.72
2022-11-22T20:45:35.473Z,97227.53
2022-11-22T20:47:37.336Z,97230.56
2022-11-22T20:49:45.499Z,97225.91
2022-11-22T20:51:47.407Z,97234.38
2022-11-22T20:53:55.192Z,97236.28
2022-11-22T20:55:56.969Z,97232.47
2022-11-22T20:58:01.029Z,97234.63
2022-11-22T21:00:05.870Z,97230.56
2022-11-22T21:02:13.356Z,97232.47
2022-11-22T21:04:19.868Z,97230.81
2022-11-22T21:06:27.557Z,97230.81
2022-11-22T21:08:33.164Z,97236.28
2022-11-22T21:17:50.254Z,97235.75
2022-11-22T21:20:23.574Z,97237.09
2022-11-22T21:26:16.158Z,97232.19
2022-11-22T21:34:57.135Z,97239.34
2022-11-22T21:37:00.342Z,97243.41
2022-11-22T21:39:07.794Z,97239.84
2022-11-22T21:43:35.573Z,97245.03
2022-11-22T21:45:37.404Z,97236.31
2022-11-22T21:47:39.288Z,97232.50
2022-11-22T21:49:40.985Z,97246.13
2022-11-22T21:51:42.826Z,97243.41
2022-11-22T21:53:44.587Z,97245.03
2022-11-22T21:55:50.872Z,97240.38
2022-11-22T21:57:55.676Z,97248.28
2022-11-22T21:59:59.480Z,97235.22
2022-11-22T22:02:01.540Z,97242.03
2022-11-22T22:04:29.069Z,97237.94
2022-11-22T22:06:40.270Z,97248.84
2022-11-22T22:08:46.632Z,97245.03
2022-11-22T22:10:51.380Z,97254.00
2022-11-22T22:12:53.073Z,97249.66
2022-11-22T22:14:54.710Z,97253.22
2022-11-22T22:16:56.422Z,97255.94
2022-11-22T22:18:57.885Z,97252.66
2022-11-22T22:21:03.430Z,97248.84
2022-11-22T22:23:05.298Z,97255.38
2022-11-22T22:25:07.273Z,97260.84
2022-11-22T22:27:08.812Z,97272.56
2022-11-22T22:29:10.324Z,97273.69
2022-11-22T22:31:22.384Z,97267.41
2022-11-22T22:33:27.045Z,97267.41
2022-11-22T22:35:31.478Z,97269.59
2022-11-22T22:37:35.138Z,97273.94
2022-11-22T22:39:36.769Z,97269.59
2022-11-22T22:41:38.403Z,97261.44
2022-11-22T22:43:43.145Z,97273.94
2022-11-22T22:45:44.814Z,97275.84
2022-11-22T22:47:47.306Z,97281.03
2022-11-22T22:49:49.288Z,97273.94
2022-11-22T22:51:55.209Z,97274.25
2022-11-22T22:53:57.441Z,97271.50
2022-11-22T22:55:59.056Z,97272.34
2022-11-22T22:58:00.852Z,97280.78
2022-11-22T23:00:02.625Z,97279.69
2022-11-22T23:02:04.494Z,97275.06
2022-11-22T23:04:06.076Z,97280.50
2022-11-22T23:06:10.303Z,97281.59
2022-11-22T23:08:17.541Z,97286.53
2022-11-22T23:10:22.344Z,97286.78
2022-11-22T23:12:23.908Z,97283.28
2022-11-22T23:14:32.753Z,97286.00
2022-11-22T23:16:34.368Z,97287.91
2022-11-22T23:18:43.032Z,97288.72
2022-11-22T23:20:44.733Z,97280.00
2022-11-22T23:22:46.297Z,97284.91
2022-11-22T23:24:47.810Z,97289.84
2022-11-22T23:26:49.425Z,97289.84
2022-11-22T23:28:56.193Z,97285.47
2022-11-22T23:31:07.408Z,97289.88
2022-11-22T23:33:08.914Z,97293.16
2022-11-22T23:35:10.610Z,97299.72
2022-11-22T23:37:14.730Z,97303.81
2022-11-22T23:39:17.707Z,97299.16
2022-11-22T23:41:22.487Z,97299.16
2022-11-22T23:43:24.120Z,97300.81
2022-11-22T23:45:25.787Z,97304.59
2022-11-22T23:47:27.257Z,97307.34
2022-11-22T23:49:28.996Z,97303.00
2022-11-22T23:51:32.381Z,97306.28
2022-11-22T23:53:34.139Z,97304.13
2022-11-22T23:55:35.795Z,97303.88
2022-11-22T23:57:37.215Z,97312.88
2022-11-22T23:59:38.737Z,97301.75
